Time;durP1;ratioP1;P1;durP2;ratioP2;P2;SDS_P1;SDS_P2;PMS_P1;PMS_P2;Temp;Humidity;BMP_temperature;BMP_pressure;BME280_temperature;BME280_humidity;BME280_pressure;Samples;Min_cycle;Max_cycle;Signal;HPM_P1;HPM_P2
2022/11/13 00:00:35;;;;;;;18.88;16.05;;;5.70;99.90;;;;;;5062066;28;20502;-29
2022/11/13 00:03:02;;;;;;;20.40;14.95;;;5.70;99.90;;;;;;5072823;28;20123;-30
2022/11/13 00:05:28;;;;;;;15.93;14.20;;;5.70;99.90;;;;;;5073707;28;20040;-29
2022/11/13 00:07:53;;;;;;;20.20;15.95;;;5.70;99.90;;;;;;5073044;28;20040;-29
2022/11/13 00:10:19;;;;;;;16.60;14.65;;;5.80;99.90;;;;;;5073272;28;20040;-29
2022/11/13 00:12:45;;;;;;;17.85;14.60;;;5.80;99.90;;;;;;5072956;28;20044;-28
2022/11/13 00:15:11;;;;;;;17.77;14.73;;;5.80;99.90;;;;;;5074389;28;20036;-28
2022/11/13 00:17:36;;;;;;;17.65;15.05;;;5.80;99.90;;;;;;5072932;28;20068;-29
2022/11/13 00:20:03;;;;;;;17.95;14.65;;;5.80;99.90;;;;;;5056133;28;20036;-29
2022/11/13 00:22:29;;;;;;;18.27;14.32;;;5.80;99.90;;;;;;5073897;28;20045;-29
2022/11/13 00:24:55;;;;;;;16.50;14.27;;;5.80;99.90;;;;;;5056138;28;20043;-30
2022/11/13 00:27:20;;;;;;;19.08;16.13;;;5.80;99.90;;;;;;5073043;28;20450;-30
2022/11/13 00:29:46;;;;;;;20.10;16.38;;;5.90;99.90;;;;;;5072921;28;20509;-28
2022/11/13 00:32:12;;;;;;;21.90;15.65;;;5.90;99.90;;;;;;5072488;28;20409;-29
2022/11/13 00:34:38;;;;;;;20.58;15.63;;;5.80;99.90;;;;;;5056002;28;20040;-29
2022/11/13 00:37:03;;;;;;;19.80;15.98;;;5.80;99.90;;;;;;5072665;28;20043;-30
2022/11/13 00:39:29;;;;;;;17.05;15.25;;;5.80;99.90;;;;;;5072271;28;20041;-28
2022/11/13 00:41:55;;;;;;;17.70;15.25;;;5.80;99.90;;;;;;5072692;28;20051;-29
2022/11/13 00:44:20;;;;;;;17.33;15.48;;;5.80;99.90;;;;;;5072091;28;20040;-29
2022/11/13 00:46:46;;;;;;;18.20;15.20;;;5.80;99.90;;;;;;5072667;28;20094;-29
2022/11/13 00:49:12;;;;;;;15.35;13.35;;;5.90;99.90;;;;;;5055611;28;20040;-29
2022/11/13 00:51:38;;;;;;;16.83;14.38;;;5.90;99.90;;;;;;5072159;28;20119;-29
2022/11/13 00:54:03;;;;;;;15.88;13.63;;;5.90;99.90;;;;;;5071999;28;20041;-30
2022/11/13 00:56:29;;;;;;;16.70;14.63;;;5.90;99.90;;;;;;5073094;28;20044;-31
2022/11/13 00:58:55;;;;;;;17.65;15.85;;;5.90;99.90;;;;;;5073138;28;20040;-29
2022/11/13 01:01:21;;;;;;;15.82;14.18;;;5.90;99.90;;;;;;5072189;28;20122;-30
2022/11/13 01:03:46;;;;;;;16.63;14.80;;;5.90;99.90;;;;;;5072204;28;20039;-30
2022/11/13 01:06:22;;;;;;;18.00;15.23;;;5.90;99.90;;;;;;5055482;28;20425;-30
2022/11/13 01:08:48;;;;;;;17.42;13.82;;;5.90;99.90;;;;;;5071434;28;20478;-29
2022/11/13 01:11:20;;;;;;;17.23;14.27;;;5.90;99.90;;;;;;5073191;28;20401;-29
2022/11/13 01:13:48;;;;;;;18.15;14.88;;;5.90;99.90;;;;;;5072067;28;20178;-29
2022/11/13 01:16:15;;;;;;;17.65;14.98;;;5.90;99.90;;;;;;5071585;28;20048;-29
2022/11/13 01:18:41;;;;;;;18.00;15.00;;;5.90;99.90;;;;;;5071605;28;20033;-30
2022/11/13 01:21:16;;;;;;;17.40;15.25;;;5.90;99.90;;;;;;5071926;28;20119;-28
2022/11/13 01:23:45;;;;;;;18.23;15.48;;;5.90;99.90;;;;;;5071794;28;20032;-29
2022/11/13 01:26:14;;;;;;;17.20;14.85;;;5.90;99.90;;;;;;5071675;28;20036;-29
2022/11/13 01:28:41;;;;;;;20.38;16.55;;;5.90;99.90;;;;;;5071675;28;20041;-29
2022/11/13 01:31:09;;;;;;;17.77;14.57;;;5.90;99.90;;;;;;5071668;28;20142;-28
2022/11/13 01:33:35;;;;;;;17.70;15.23;;;6.00;99.90;;;;;;5071685;28;20436;-28
2022/11/13 01:36:05;;;;;;;19.52;15.82;;;5.90;99.90;;;;;;5071428;28;20123;-30
2022/11/13 01:38:31;;;;;;;19.63;15.30;;;5.90;99.90;;;;;;5071205;28;20066;-29
2022/11/13 01:40:57;;;;;;;19.15;15.77;;;5.90;99.90;;;;;;5071222;28;20033;-29
2022/11/13 01:43:27;;;;;;;15.90;13.93;;;5.90;99.90;;;;;;5071326;28;20033;-29
2022/11/13 01:46:18;;;;;;;16.50;14.40;;;5.90;99.90;;;;;;5071023;28;20037;-28
2022/11/13 01:49:07;;;;;;;17.33;15.43;;;6.00;99.90;;;;;;5054369;28;20076;-30
2022/11/13 01:51:48;;;;;;;18.52;16.52;;;6.00;99.90;;;;;;5039781;28;20048;-29
2022/11/13 01:54:19;;;;;;;19.83;16.63;;;6.00;99.90;;;;;;5072115;28;20036;-30
2022/11/13 01:56:45;;;;;;;20.77;16.13;;;6.00;99.90;;;;;;5071263;28;20486;-29
2022/11/13 01:59:19;;;;;;;17.83;15.23;;;6.00;99.90;;;;;;5070943;28;20086;-29
2022/11/13 02:01:45;;;;;;;;;;;6.00;99.90;;;;;;5055019;28;20383;-29
2022/11/13 02:04:11;;;;;;;18.80;16.38;;;6.00;99.90;;;;;;5072271;28;20007;-29
2022/11/13 02:06:44;;;;;;;21.85;15.80;;;5.90;99.90;;;;;;5072536;28;20041;-29
2022/11/13 02:09:11;;;;;;;19.13;16.55;;;5.90;99.90;;;;;;5072263;28;20127;-30
2022/11/13 02:11:38;;;;;;;19.20;16.80;;;5.90;99.90;;;;;;5072671;28;20097;-29
2022/11/13 02:14:05;;;;;;;20.02;15.65;;;5.90;99.90;;;;;;5072574;28;20040;-29
2022/11/13 02:16:33;;;;;;;18.95;15.23;;;5.90;99.90;;;;;;5073666;28;20040;-29
2022/11/13 02:19:05;;;;;;;17.60;15.77;;;5.90;99.90;;;;;;5072481;28;20037;-30
2022/11/13 02:21:49;;;;;;;19.42;17.15;;;5.90;99.90;;;;;;5073457;28;20071;-30
2022/11/13 02:24:31;;;;;;;21.65;17.38;;;5.90;99.90;;;;;;5072095;28;20036;-29
2022/11/13 02:27:01;;;;;;;19.13;16.73;;;5.80;99.90;;;;;;5071934;28;20052;-30
2022/11/13 02:29:27;;;;;;;17.90;16.00;;;5.80;99.90;;;;;;5073836;28;20048;-41
2022/11/13 02:31:53;;;;;;;19.52;16.50;;;5.80;99.90;;;;;;5072850;28;20393;-29
2022/11/13 02:34:19;;;;;;;20.58;16.73;;;5.80;99.90;;;;;;5072630;28;20043;-29
2022/11/13 02:36:45;;;;;;;18.45;15.57;;;5.80;99.90;;;;;;5072507;28;20072;-29
2022/11/13 02:39:12;;;;;;;19.08;15.85;;;5.80;99.90;;;;;;5072207;28;20028;-29
2022/11/13 02:41:38;;;;;;;17.50;15.13;;;5.70;99.90;;;;;;5073283;28;20448;-30
2022/11/13 02:44:07;;;;;;;20.88;17.17;;;5.70;99.90;;;;;;5072044;28;20036;-29
2022/11/13 02:46:33;;;;;;;19.95;16.33;;;5.70;99.90;;;;;;5071956;28;20040;-30
2022/11/13 02:48:59;;;;;;;19.35;17.08;;;5.70;99.90;;;;;;5073736;28;20049;-29
2022/11/13 02:51:25;;;;;;;21.15;16.88;;;5.60;99.90;;;;;;5072600;28;20040;-30
2022/11/13 02:53:51;;;;;;;21.98;18.27;;;5.60;99.90;;;;;;5071438;28;20079;-30
2022/11/13 02:56:17;;;;;;;18.85;15.90;;;5.60;99.90;;;;;;5071577;28;20450;-29
2022/11/13 02:58:43;;;;;;;19.38;16.63;;;5.60;99.90;;;;;;5071503;28;20036;-29
2022/11/13 03:01:09;;;;;;;19.77;16.70;;;5.60;99.90;;;;;;5071639;28;20083;-29
2022/11/13 03:03:35;;;;;;;19.80;17.70;;;5.50;99.90;;;;;;5072910;28;20093;-28
2022/11/13 03:06:00;;;;;;;25.20;18.88;;;5.50;99.90;;;;;;5071713;28;20033;-29
2022/11/13 03:08:26;;;;;;;22.25;18.02;;;5.50;99.90;;;;;;5071338;28;20044;-35
2022/11/13 03:10:53;;;;;;;23.35;17.58;;;5.50;99.90;;;;;;5071564;28;20127;-32
2022/11/13 03:13:19;;;;;;;23.77;19.83;;;5.50;99.90;;;;;;5071496;28;20067;-28
2022/11/13 03:15:45;;;;;;;21.60;18.40;;;5.50;99.90;;;;;;5071273;28;20036;-28
2022/11/13 03:18:11;;;;;;;19.02;16.52;;;5.50;99.90;;;;;;5071488;28;20474;-29
2022/11/13 03:20:39;;;;;;;21.25;18.95;;;5.50;99.90;;;;;;5071399;28;20033;-30
2022/11/13 03:23:05;;;;;;;22.08;18.92;;;5.50;99.90;;;;;;5054730;28;20110;-29
2022/11/13 03:25:32;;;;;;;21.80;18.52;;;5.50;99.90;;;;;;5072572;28;20212;-29
2022/11/13 03:27:59;;;;;;;19.60;16.98;;;5.40;99.90;;;;;;5072585;28;20040;-30
2022/11/13 03:30:26;;;;;;;19.17;16.80;;;5.40;99.90;;;;;;5071241;28;20082;-29
2022/11/13 03:32:54;;;;;;;20.73;16.95;;;5.40;99.90;;;;;;5072410;28;20099;-29
2022/11/13 03:35:22;;;;;;;19.38;16.52;;;5.40;99.90;;;;;;5058203;28;20105;-29
2022/11/13 03:37:48;;;;;;;23.27;19.88;;;5.40;99.90;;;;;;5074619;28;20033;-30
2022/11/13 03:40:13;;;;;;;21.80;17.48;;;5.30;99.90;;;;;;5074704;28;20504;-29
2022/11/13 03:42:39;;;;;;;22.48;17.70;;;5.30;99.90;;;;;;5074164;28;20124;-30
2022/11/13 03:45:05;;;;;;;25.23;19.10;;;5.30;99.90;;;;;;5074390;28;20120;-28
2022/11/13 03:47:31;;;;;;;23.85;19.60;;;5.30;99.90;;;;;;5074621;28;20401;-30
2022/11/13 03:49:57;;;;;;;20.48;16.95;;;5.20;99.90;;;;;;5074482;28;20120;-29
2022/11/13 03:52:22;;;;;;;23.48;18.08;;;5.20;99.90;;;;;;5074218;28;20076;-29
2022/11/13 03:54:48;;;;;;;21.58;19.27;;;5.20;99.90;;;;;;5057358;28;20109;-30
2022/11/13 03:57:14;;;;;;;21.55;18.13;;;5.20;99.90;;;;;;5073966;28;20041;-28
2022/11/13 03:59:40;;;;;;;20.67;18.08;;;5.20;99.90;;;;;;5073946;28;20040;-29
2022/11/13 04:02:06;;;;;;;25.60;19.15;;;5.20;99.90;;;;;;5074260;28;20119;-29
2022/11/13 04:04:31;;;;;;;24.33;19.02;;;5.10;99.90;;;;;;5074037;28;20359;-29
2022/11/13 04:06:57;;;;;;;24.73;18.75;;;5.10;99.90;;;;;;5073629;28;20119;-29
2022/11/13 04:09:23;;;;;;;21.50;18.05;;;5.10;99.90;;;;;;5073933;28;20041;-29
2022/11/13 04:11:48;;;;;;;24.70;19.75;;;5.10;99.90;;;;;;5074213;28;20508;-38
2022/11/13 04:14:14;;;;;;;22.38;18.17;;;5.10;99.90;;;;;;5073682;28;20037;-30
2022/11/13 04:16:40;;;;;;;25.20;20.10;;;5.10;99.90;;;;;;5073625;28;20055;-30
2022/11/13 04:19:06;;;;;;;28.30;21.35;;;5.10;99.90;;;;;;5074096;28;20040;-30
2022/11/13 04:21:31;;;;;;;24.25;20.45;;;5.10;99.90;;;;;;5073478;28;20442;-29
2022/11/13 04:23:57;;;;;;;21.17;17.95;;;5.10;99.90;;;;;;5073554;28;20036;-29
2022/11/13 04:26:23;;;;;;;24.15;19.13;;;5.10;99.90;;;;;;5073273;28;20044;-28
2022/11/13 04:28:49;;;;;;;22.85;17.27;;;5.10;99.90;;;;;;5073805;28;20040;-29
2022/11/13 04:31:14;;;;;;;21.00;18.65;;;5.10;99.90;;;;;;5073946;28;20506;-29
2022/11/13 04:33:40;;;;;;;20.52;16.60;;;5.10;99.90;;;;;;5073444;28;20036;-28
2022/11/13 04:36:06;;;;;;;22.00;18.60;;;5.10;99.90;;;;;;5073117;28;20102;-29
2022/11/13 04:38:32;;;;;;;21.95;18.35;;;5.10;99.90;;;;;;5073217;28;20036;-31
2022/11/13 04:43:42;;;;;;;;;;;5.10;99.90;;;;;;5074702;28;20041;-29
2022/11/13 04:46:07;;;;;;;18.63;15.48;;;5.00;99.90;;;;;;5073060;28;19917;-29
2022/11/13 04:48:33;;;;;;;27.48;20.33;;;5.00;99.90;;;;;;5056563;28;20037;-29
2022/11/13 04:50:59;;;;;;;19.65;17.52;;;5.00;99.90;;;;;;5076082;28;20068;-31
2022/11/13 04:53:25;;;;;;;23.23;18.70;;;5.00;99.90;;;;;;5071779;28;20501;-32
2022/11/13 04:55:54;;;;;;;20.80;17.50;;;4.90;99.90;;;;;;5058513;28;20033;-34
2022/11/13 04:58:20;;;;;;;22.30;17.98;;;4.90;99.90;;;;;;5047205;28;20038;-30
2022/11/13 05:00:45;;;;;;;20.58;17.88;;;4.90;99.90;;;;;;5070291;28;20124;-32
2022/11/13 05:03:11;;;;;;;21.85;18.25;;;4.90;99.90;;;;;;5066309;28;20520;-33
2022/11/13 05:05:37;;;;;;;21.17;17.10;;;4.80;99.90;;;;;;5073861;28;20032;-31
2022/11/13 05:08:03;;;;;;;23.48;18.05;;;4.80;99.90;;;;;;5065686;28;20127;-32
2022/11/13 05:10:28;;;;;;;20.08;17.02;;;4.80;99.90;;;;;;5070850;28;20058;-31
2022/11/13 05:12:57;;;;;;;19.70;16.85;;;4.80;99.90;;;;;;5059750;28;20500;-32
2022/11/13 05:15:23;;;;;;;27.63;20.67;;;4.80;99.90;;;;;;5078333;28;20040;-34
2022/11/13 05:17:49;;;;;;;24.08;19.80;;;4.80;99.90;;;;;;5076379;28;20094;-33
2022/11/13 05:20:15;;;;;;;28.08;21.10;;;4.80;99.90;;;;;;5072564;28;20116;-30
2022/11/13 05:22:40;;;;;;;24.05;18.67;;;4.80;99.90;;;;;;5049222;28;20032;-32
2022/11/13 05:25:07;;;;;;;24.45;18.92;;;4.80;99.90;;;;;;5061575;28;20043;-32
2022/11/13 05:27:32;;;;;;;22.67;16.48;;;4.80;99.90;;;;;;5073163;28;20029;-30
2022/11/13 05:29:58;;;;;;;23.52;17.80;;;4.70;99.90;;;;;;5038197;28;20048;-30
2022/11/13 05:32:24;;;;;;;22.77;18.13;;;4.70;99.90;;;;;;5048795;28;20045;-33
2022/11/13 05:34:50;;;;;;;22.08;17.48;;;4.70;99.90;;;;;;5058779;28;20044;-33
2022/11/13 05:37:15;;;;;;;23.35;17.77;;;4.70;99.90;;;;;;5070781;28;20193;-35
2022/11/13 05:39:41;;;;;;;20.25;18.17;;;4.60;99.90;;;;;;5070648;28;20045;-32
2022/11/13 05:42:07;;;;;;;23.88;18.73;;;4.60;99.90;;;;;;5071994;28;20036;-31
2022/11/13 05:44:33;;;;;;;21.08;17.90;;;4.60;99.90;;;;;;5067662;28;20097;-32
2022/11/13 05:46:58;;;;;;;21.05;18.50;;;4.60;99.90;;;;;;5070662;28;20101;-32
2022/11/13 05:49:24;;;;;;;19.35;15.95;;;4.60;99.90;;;;;;5065807;28;20050;-31
2022/11/13 05:51:52;;;;;;;21.65;17.95;;;4.60;99.90;;;;;;5070662;28;20111;-33
2022/11/13 05:54:18;;;;;;;21.08;17.80;;;4.60;99.90;;;;;;5071132;28;20047;-33
2022/11/13 05:56:44;;;;;;;23.25;16.90;;;4.50;99.90;;;;;;5056103;28;20040;-31
2022/11/13 05:59:10;;;;;;;23.88;19.42;;;4.50;99.90;;;;;;5070414;28;20432;-32
2022/11/13 06:01:37;;;;;;;22.98;18.13;;;4.50;99.90;;;;;;5068676;28;20036;-31
2022/11/13 06:04:05;;;;;;;22.30;16.92;;;4.50;99.90;;;;;;5059163;28;20067;-31
2022/11/13 06:06:31;;;;;;;21.23;18.40;;;4.50;99.90;;;;;;5062374;28;20040;-33
2022/11/13 06:08:59;;;;;;;20.23;16.17;;;4.50;99.90;;;;;;5066454;28;20482;-32
2022/11/13 06:11:27;;;;;;;22.25;17.85;;;4.50;99.90;;;;;;5070376;28;20130;-32
2022/11/13 06:13:53;;;;;;;24.15;17.73;;;4.40;99.90;;;;;;5072883;28;20028;-32
2022/11/13 06:16:24;;;;;;;18.58;16.00;;;4.50;99.90;;;;;;5067048;28;20044;-32
2022/11/13 06:18:57;;;;;;;21.25;18.02;;;4.40;99.90;;;;;;5071715;28;20051;-36
2022/11/13 06:21:25;;;;;;;22.05;18.30;;;4.40;99.90;;;;;;5061531;28;20032;-36
2022/11/13 06:23:52;;;;;;;21.23;17.52;;;4.40;99.90;;;;;;5068941;28;20028;-31
2022/11/13 06:26:23;;;;;;;21.17;18.30;;;4.30;99.90;;;;;;5068338;28;20493;-31
2022/11/13 06:28:49;;;;;;;24.13;19.30;;;4.40;99.90;;;;;;5052330;28;20478;-32
2022/11/13 06:31:17;;;;;;;21.85;18.05;;;4.30;99.90;;;;;;5052735;28;20046;-31
2022/11/13 06:33:44;;;;;;;25.30;20.58;;;4.30;99.90;;;;;;5070105;28;20111;-30
2022/11/13 06:36:18;;;;;;;23.65;18.55;;;4.30;99.90;;;;;;5072787;28;20045;-34
2022/11/13 06:38:44;;;;;;;25.98;21.38;;;4.30;99.90;;;;;;5068496;28;20078;-32
2022/11/13 06:41:12;;;;;;;21.52;17.73;;;4.40;99.90;;;;;;5070173;28;20036;-30
2022/11/13 06:43:38;;;;;;;22.80;17.17;;;4.40;99.90;;;;;;5069949;28;20083;-30
2022/11/13 06:46:06;;;;;;;23.75;19.33;;;4.30;99.90;;;;;;5068662;28;20498;-33
2022/11/13 06:48:32;;;;;;;25.55;20.45;;;4.30;99.90;;;;;;5052435;28;20478;-31
2022/11/13 06:51:03;;;;;;;23.35;18.40;;;4.30;99.90;;;;;;5067439;28;20043;-30
2022/11/13 06:53:29;;;;;;;22.85;18.60;;;4.30;99.90;;;;;;5052116;28;20036;-31
2022/11/13 06:55:56;;;;;;;24.00;18.92;;;4.30;99.90;;;;;;5068024;28;20106;-30
2022/11/13 06:58:22;;;;;;;25.00;20.42;;;4.30;99.90;;;;;;5051994;28;20367;-31
2022/11/13 07:00:48;;;;;;;26.15;19.23;;;4.30;99.90;;;;;;5065913;28;20094;-29
2022/11/13 07:03:15;;;;;;;24.40;19.85;;;4.30;99.90;;;;;;5062695;28;20044;-33
2022/11/13 07:05:40;;;;;;;23.80;20.63;;;4.30;99.90;;;;;;5054267;28;20087;-33
2022/11/13 07:08:06;;;;;;;24.50;18.40;;;4.30;99.90;;;;;;5071033;28;20076;-33
2022/11/13 07:10:32;;;;;;;20.77;18.48;;;4.30;99.90;;;;;;5071354;28;20091;-34
2022/11/13 07:12:59;;;;;;;22.08;18.38;;;4.20;99.90;;;;;;5072573;28;20101;-36
2022/11/13 07:15:25;;;;;;;21.85;18.63;;;4.20;99.90;;;;;;5071802;28;20048;-31
2022/11/13 07:17:51;;;;;;;22.50;17.95;;;4.20;99.90;;;;;;5056843;28;20068;-33
2022/11/13 07:20:17;;;;;;;22.70;18.42;;;4.20;99.90;;;;;;5072739;28;20076;-31
2022/11/13 07:22:43;;;;;;;18.95;15.73;;;4.20;99.90;;;;;;5072358;28;20112;-33
2022/11/13 07:25:08;;;;;;;23.45;18.73;;;4.20;99.90;;;;;;5074315;28;20044;-32
2022/11/13 07:27:34;;;;;;;19.40;16.83;;;4.20;99.90;;;;;;5073785;28;20044;-32
2022/11/13 07:30:00;;;;;;;21.63;17.27;;;4.30;99.90;;;;;;5059096;28;20036;-35
2022/11/13 07:32:26;;;;;;;20.80;16.60;;;4.30;99.90;;;;;;5069867;28;20046;-35
2022/11/13 07:34:52;;;;;;;21.25;17.67;;;4.30;99.90;;;;;;5069288;28;20091;-35
2022/11/13 07:37:17;;;;;;;21.92;17.77;;;4.30;99.90;;;;;;5073574;28;20402;-35
2022/11/13 07:39:43;;;;;;;23.00;18.85;;;4.40;99.90;;;;;;5069970;28;20430;-34
2022/11/13 07:42:09;;;;;;;22.92;18.52;;;4.40;99.90;;;;;;5054367;28;20040;-31
2022/11/13 07:44:35;;;;;;;20.75;17.50;;;4.40;99.90;;;;;;5070382;28;20032;-36
2022/11/13 07:47:00;;;;;;;25.27;18.85;;;4.40;99.90;;;;;;5077706;28;20512;-34
2022/11/13 07:49:26;;;;;;;22.05;17.50;;;4.40;99.90;;;;;;5081656;28;20133;-32
2022/11/13 07:51:52;;;;;;;19.58;16.38;;;4.40;99.90;;;;;;5039022;28;20041;-30
2022/11/13 07:54:18;;;;;;;21.13;16.65;;;4.40;99.90;;;;;;5072863;28;20501;-32
2022/11/13 07:56:46;;;;;;;21.77;17.63;;;4.40;99.90;;;;;;5068059;28;20044;-32
2022/11/13 07:59:12;;;;;;;18.92;16.63;;;4.40;99.90;;;;;;5070335;28;20029;-33
2022/11/13 08:01:38;;;;;;;21.60;17.88;;;4.50;99.90;;;;;;5062252;28;20076;-33
2022/11/13 08:04:03;;;;;;;20.67;17.67;;;4.50;99.90;;;;;;5063890;28;20121;-32
2022/11/13 08:06:29;;;;;;;19.65;17.02;;;4.50;99.90;;;;;;5070444;28;20104;-33
2022/11/13 08:08:55;;;;;;;22.60;18.77;;;4.60;99.90;;;;;;5072626;28;20448;-34
2022/11/13 08:11:21;;;;;;;22.52;19.45;;;4.70;99.90;;;;;;5070182;28;20040;-31
2022/11/13 08:13:47;;;;;;;24.40;20.10;;;4.80;99.90;;;;;;5068639;28;20039;-34
2022/11/13 08:16:13;;;;;;;21.20;18.48;;;5.10;99.90;;;;;;5082225;28;20043;-32
2022/11/13 08:18:39;;;;;;;20.67;17.20;;;5.70;99.90;;;;;;5057585;28;20028;-33
2022/11/13 08:21:05;;;;;;;17.92;16.02;;;6.50;99.90;;;;;;5035665;28;20501;-31
2022/11/13 08:23:31;;;;;;;17.38;15.10;;;7.30;99.90;;;;;;5071783;28;20036;-34
2022/11/13 08:25:57;;;;;;;17.00;14.68;;;7.90;99.90;;;;;;5049857;28;20028;-32
2022/11/13 08:28:23;;;;;;;15.40;13.90;;;8.60;99.90;;;;;;5047508;28;20044;-33
2022/11/13 08:30:49;;;;;;;14.57;12.65;;;9.10;99.90;;;;;;5055087;28;20367;-34
2022/11/13 08:33:15;;;;;;;15.50;13.32;;;9.50;99.90;;;;;;5069067;28;20112;-32
2022/11/13 08:35:40;;;;;;;14.98;12.15;;;10.00;99.90;;;;;;5067705;28;20286;-32
2022/11/13 08:38:07;;;;;;;13.75;11.77;;;10.40;99.90;;;;;;5066175;28;20538;-36
2022/11/13 08:40:34;;;;;;;13.35;12.05;;;10.70;99.90;;;;;;5061088;28;20449;-32
2022/11/13 08:43:02;;;;;;;12.35;11.05;;;10.80;99.90;;;;;;5074832;28;20028;-32
2022/11/13 08:45:29;;;;;;;12.85;11.32;;;10.70;99.90;;;;;;5065524;28;20495;-33
2022/11/13 08:48:00;;;;;;;12.25;10.93;;;10.30;99.90;;;;;;5043208;28;20040;-32
2022/11/13 08:50:27;;;;;;;11.82;10.73;;;9.80;99.90;;;;;;5056905;28;20044;-30
2022/11/13 08:52:57;;;;;;;11.40;10.30;;;9.40;99.90;;;;;;5074714;28;20498;-33
2022/11/13 08:55:23;;;;;;;11.60;10.27;;;8.90;99.90;;;;;;5059976;28;20079;-34
2022/11/13 08:57:50;;;;;;;12.45;11.25;;;8.60;99.90;;;;;;5062839;28;20490;-32
2022/11/13 09:00:16;;;;;;;12.80;11.50;;;8.40;99.90;;;;;;5080372;28;20032;-33
2022/11/13 09:02:42;;;;;;;12.68;11.45;;;8.50;99.90;;;;;;5074406;28;20123;-35
2022/11/13 09:05:08;;;;;;;15.30;13.07;;;8.90;99.90;;;;;;5060407;28;20404;-36
2022/11/13 09:07:34;;;;;;;14.00;12.20;;;9.60;99.90;;;;;;5065437;28;20139;-32
2022/11/13 09:10:00;;;;;;;14.02;12.63;;;10.10;99.90;;;;;;5074290;28;20040;-34
2022/11/13 09:12:26;;;;;;;14.00;12.60;;;10.70;99.90;;;;;;5079098;28;20327;-32
2022/11/13 09:14:51;;;;;;;14.75;12.20;;;11.50;99.90;;;;;;5072642;28;20041;-32
2022/11/13 09:17:17;;;;;;;13.95;12.55;;;12.10;99.90;;;;;;5077406;28;20071;-32
2022/11/13 09:19:43;;;;;;;14.75;13.35;;;12.60;99.90;;;;;;5065436;28;20090;-35
2022/11/13 09:22:10;;;;;;;13.35;12.05;;;13.20;99.90;;;;;;5062823;28;20107;-34
2022/11/13 09:24:36;;;;;;;12.48;11.27;;;13.50;99.90;;;;;;5056717;28;20038;-34
2022/11/13 09:27:02;;;;;;;12.48;11.38;;;13.90;99.90;;;;;;5074240;28;20485;-34
2022/11/13 09:29:28;;;;;;;12.10;11.02;;;14.10;99.90;;;;;;5073852;28;20119;-36
2022/11/13 09:31:55;;;;;;;12.27;10.98;;;14.40;99.90;;;;;;5053488;28;20079;-33
2022/11/13 09:34:21;;;;;;;11.50;10.43;;;14.80;99.90;;;;;;5067502;28;20039;-33
2022/11/13 09:36:47;;;;;;;10.90;9.77;;;15.30;99.90;;;;;;5057184;28;20125;-34
2022/11/13 09:39:13;;;;;;;11.00;9.90;;;15.40;99.90;;;;;;5045037;28;20449;-33
2022/11/13 09:42:09;;;;;;;11.23;10.13;;;15.30;99.90;;;;;;5069966;28;20113;-34
2022/11/13 09:44:47;;;;;;;10.90;9.75;;;15.30;99.90;;;;;;5056023;28;20417;-36
2022/11/13 09:47:21;;;;;;;10.75;9.73;;;15.20;99.90;;;;;;5058626;28;20039;-32
2022/11/13 09:50:03;;;;;;;11.13;10.00;;;15.20;99.90;;;;;;5055566;28;20032;-33
2022/11/13 09:52:35;;;;;;;10.63;9.52;;;15.10;99.90;;;;;;5051602;28;20041;-32
2022/11/13 09:55:03;;;;;;;11.25;10.25;;;15.10;99.90;;;;;;5071667;28;20482;-37
2022/11/13 09:57:37;;;;;;;10.55;9.55;;;15.60;99.90;;;;;;5053464;28;20040;-34
2022/11/13 10:00:14;;;;;;;10.52;9.52;;;16.50;99.90;;;;;;5060969;28;20426;-34
2022/11/13 10:03:07;;;;;;;9.88;9.07;;;17.10;99.90;;;;;;5053843;28;20072;-36
2022/11/13 10:05:48;;;;;;;10.52;9.55;;;17.90;99.90;;;;;;5044599;28;20038;-34
2022/11/13 10:08:25;;;;;;;12.75;9.45;;;18.40;99.90;;;;;;5067344;28;20044;-33
2022/11/13 10:11:24;;;;;;;9.70;8.90;;;18.60;99.90;;;;;;5059886;28;20115;-35
2022/11/13 10:13:55;;;;;;;9.65;8.75;;;18.80;99.90;;;;;;5073331;28;20036;-34
2022/11/13 10:16:43;;;;;;;9.70;8.80;;;19.20;99.90;;;;;;5072901;28;20130;-35
2022/11/13 10:19:30;;;;;;;9.68;8.93;;;19.20;99.90;;;;;;5073923;28;20036;-36
2022/11/13 10:22:13;;;;;;;9.00;8.20;;;19.20;99.90;;;;;;5063510;28;20029;-34
2022/11/13 10:24:42;;;;;;;10.95;9.90;;;19.30;99.90;;;;;;5070305;28;20366;-33
2022/11/13 10:27:10;;;;;;;9.48;8.65;;;19.00;99.90;;;;;;5073317;28;20068;-34
2022/11/13 10:29:37;;;;;;;8.40;7.60;;;18.60;99.90;;;;;;5070219;28;20044;-35
2022/11/13 10:32:22;;;;;;;7.50;6.90;;;18.10;99.90;;;;;;5059940;28;20048;-34
2022/11/13 10:35:13;;;;;;;8.13;6.55;;;17.60;99.90;;;;;;5068522;28;20403;-33
2022/11/13 10:38:03;;;;;;;7.65;6.82;;;17.10;99.90;;;;;;5024534;28;20076;-34
2022/11/13 10:40:34;;;;;;;7.05;6.45;;;17.40;99.90;;;;;;5064812;28;20051;-34
2022/11/13 10:43:22;;;;;;;6.57;5.93;;;18.20;99.90;;;;;;5068145;28;20081;-34
2022/11/13 10:46:00;;;;;;;7.45;6.85;;;19.20;99.90;;;;;;5058342;28;20032;-34
2022/11/13 10:48:34;;;;;;;7.10;6.50;;;20.00;97.00;;;;;;5055669;28;20033;-34
2022/11/13 10:51:23;;;;;;;8.98;7.90;;;20.60;89.00;;;;;;5051392;28;20040;-34
2022/11/13 10:53:50;;;;;;;7.78;7.18;;;21.20;84.20;;;;;;5058636;28;20056;-36
2022/11/13 10:56:30;;;;;;;8.38;7.55;;;21.20;82.90;;;;;;5072715;28;20055;-34
2022/11/13 10:59:02;;;;;;;8.18;7.43;;;21.00;72.80;;;;;;5077301;28;20047;-34
2022/11/13 11:01:29;;;;;;;7.03;6.53;;;20.50;80.60;;;;;;5071869;28;20504;-34
2022/11/13 11:03:54;;;;;;;7.15;6.50;;;20.10;93.00;;;;;;5060353;28;20038;-36
2022/11/13 11:06:31;;;;;;;7.40;6.75;;;19.50;94.50;;;;;;5073314;28;20123;-35
2022/11/13 11:09:19;;;;;;;7.15;6.55;;;19.20;94.60;;;;;;5072159;28;20044;-34
2022/11/13 11:12:15;;;;;;;6.93;6.30;;;19.20;92.40;;;;;;5056807;28;20079;-33
2022/11/13 11:15:03;;;;;;;6.50;5.90;;;19.10;96.90;;;;;;5056889;28;20436;-34
2022/11/13 11:17:35;;;;;;;6.22;5.72;;;19.10;96.20;;;;;;5068446;28;20044;-33
2022/11/13 11:20:04;;;;;;;5.97;5.47;;;19.30;94.40;;;;;;5070033;28;20119;-35
2022/11/13 11:22:33;;;;;;;6.90;6.28;;;19.70;90.60;;;;;;5071845;28;20040;-34
2022/11/13 11:25:02;;;;;;;6.47;5.95;;;19.80;87.50;;;;;;5070857;28;20466;-33
2022/11/13 11:27:42;;;;;;;6.65;6.03;;;19.90;79.30;;;;;;5057121;28;20036;-33
2022/11/13 11:30:25;;;;;;;7.13;6.53;;;19.90;72.70;;;;;;5071034;28;20313;-34
2022/11/13 11:33:32;;;;;;;6.50;6.00;;;19.90;72.20;;;;;;5073660;28;20032;-35
2022/11/13 11:36:07;;;;;;;6.15;5.65;;;19.70;73.90;;;;;;5063219;28;20044;-36
2022/11/13 11:38:49;;;;;;;6.65;6.03;;;19.30;85.70;;;;;;5074255;28;20377;-35
2022/11/13 11:41:19;;;;;;;6.93;6.22;;;19.10;86.40;;;;;;5073126;28;20115;-36
2022/11/13 11:44:00;;;;;;;5.68;5.28;;;19.00;87.60;;;;;;5056773;28;20077;-34
2022/11/13 11:46:28;;;;;;;7.00;6.40;;;19.20;89.50;;;;;;5052458;28;20052;-35
2022/11/13 11:48:59;;;;;;;6.20;5.60;;;19.40;94.70;;;;;;5057221;28;20037;-34
2022/11/13 11:51:43;;;;;;;6.22;5.72;;;20.00;88.70;;;;;;5046532;28;20036;-34
2022/11/13 11:54:38;;;;;;;5.93;5.45;;;20.40;87.00;;;;;;5069112;28;20029;-36
2022/11/13 11:57:17;;;;;;;5.90;5.43;;;20.80;72.70;;;;;;5050016;28;20512;-34
2022/11/13 12:00:05;;;;;;;6.40;5.47;;;21.00;69.50;;;;;;5064618;28;20029;-36
2022/11/13 12:02:33;;;;;;;6.10;5.60;;;21.90;77.20;;;;;;5065561;28;20549;-35
2022/11/13 12:05:22;;;;;;;5.43;4.93;;;22.50;63.20;;;;;;5061664;28;20036;-34
2022/11/13 12:08:00;;;;;;;5.88;5.35;;;22.90;58.40;;;;;;5058632;28;20127;-33
2022/11/13 12:10:31;;;;;;;5.07;4.65;;;23.50;54.90;;;;;;5065044;28;20040;-34
2022/11/13 12:13:35;;;;;;;6.07;5.47;;;24.00;54.70;;;;;;5057282;28;20543;-34
2022/11/13 12:16:08;;;;;;;5.80;5.30;;;24.30;53.00;;;;;;5068780;28;20083;-34
2022/11/13 12:18:39;;;;;;;5.80;5.38;;;24.90;53.90;;;;;;5072217;28;20037;-34
2022/11/13 12:21:17;;;;;;;6.03;5.47;;;25.40;52.20;;;;;;5074435;28;20040;-33
2022/11/13 12:23:52;;;;;;;5.97;5.47;;;25.50;50.20;;;;;;5071273;28;20032;-34
2022/11/13 12:26:47;;;;;;;5.80;5.32;;;25.90;51.50;;;;;;5069717;28;20039;-34
2022/11/13 12:29:40;;;;;;;5.18;4.78;;;26.30;50.20;;;;;;5072324;28;20108;-33
2022/11/13 12:32:15;;;;;;;5.68;5.18;;;26.70;50.00;;;;;;5055203;28;20063;-34
2022/11/13 12:34:46;;;;;;;5.20;4.70;;;26.70;48.00;;;;;;5070223;28;20497;-35
2022/11/13 12:37:17;;;;;;;5.00;4.50;;;27.00;47.20;;;;;;5070198;28;20132;-35
2022/11/13 12:39:57;;;;;;;5.05;4.70;;;27.10;45.50;;;;;;5070505;28;20041;-33
2022/11/13 12:42:47;;;;;;;4.45;4.10;;;27.20;46.40;;;;;;5055825;28;20303;-35
2022/11/13 12:45:49;;;;;;;6.50;4.68;;;27.50;45.30;;;;;;5070230;28;20039;-35
2022/11/13 12:48:15;;;;;;;4.78;4.32;;;27.70;45.00;;;;;;5033716;28;20040;-34
2022/11/13 12:50:41;;;;;;;4.55;4.15;;;27.80;45.10;;;;;;5062741;28;20032;-34
2022/11/13 12:53:11;;;;;;;5.50;5.10;;;27.80;44.30;;;;;;5073074;28;20039;-34